createdAt,value
2017-08-29T00:00:27.615Z,17.80
2017-08-29T00:02:55.795Z,17.70
2017-08-29T00:05:23.943Z,17.70
2017-08-29T00:07:52.081Z,17.70
2017-08-29T00:10:20.241Z,17.60
2017-08-29T00:12:48.373Z,17.60
2017-08-29T00:15:16.531Z,17.60
2017-08-29T00:17:44.662Z,17.60
2017-08-29T00:20:12.825Z,17.60
2017-08-29T00:22:40.956Z,17.60
2017-08-29T00:25:09.099Z,17.60
2017-08-29T00:27:37.266Z,17.60
2017-08-29T00:30:05.397Z,17.50
2017-08-29T00:32:33.557Z,17.50
2017-08-29T00:35:01.694Z,17.50
2017-08-29T00:37:29.862Z,17.50
2017-08-29T00:39:58.005Z,17.40
2017-08-29T00:42:26.161Z,17.50
2017-08-29T00:44:54.343Z,17.40
2017-08-29T00:47:22.486Z,17.40
2017-08-29T00:49:50.774Z,17.40
2017-08-29T00:52:18.914Z,17.30
2017-08-29T00:54:47.048Z,17.30
2017-08-29T00:57:15.223Z,17.30
2017-08-29T00:59:43.447Z,17.30
2017-08-29T01:02:11.594Z,17.20
2017-08-29T01:04:39.759Z,17.20
2017-08-29T01:07:07.907Z,17.10
2017-08-29T01:09:36.074Z,17.10
2017-08-29T01:12:04.214Z,17.10
2017-08-29T01:14:32.379Z,17.00
2017-08-29T01:17:00.534Z,17.00
2017-08-29T01:19:28.685Z,17.00
2017-08-29T01:21:56.881Z,17.00
2017-08-29T01:24:25.111Z,16.90
2017-08-29T01:26:53.255Z,16.90
2017-08-29T01:29:21.445Z,16.80
2017-08-29T01:31:49.596Z,16.90
2017-08-29T01:34:17.767Z,16.80
2017-08-29T01:36:45.919Z,16.80
2017-08-29T01:39:14.066Z,16.80
2017-08-29T01:41:42.268Z,16.80
2017-08-29T01:44:10.415Z,16.70
2017-08-29T01:46:38.545Z,16.70
2017-08-29T01:49:06.723Z,16.70
2017-08-29T01:51:34.884Z,16.60
2017-08-29T01:54:03.033Z,16.60
2017-08-29T01:56:31.198Z,16.60
2017-08-29T01:58:59.344Z,16.60
2017-08-29T02:01:27.541Z,16.50
2017-08-29T02:03:55.888Z,16.50
2017-08-29T02:06:24.050Z,16.50
2017-08-29T02:08:52.226Z,16.50
2017-08-29T02:11:20.391Z,16.50
2017-08-29T02:13:48.518Z,16.50
2017-08-29T02:16:16.687Z,16.40
2017-08-29T02:18:44.823Z,16.40
2017-08-29T02:21:12.966Z,16.40
2017-08-29T02:23:41.139Z,16.40
2017-08-29T02:26:09.266Z,16.30
2017-08-29T02:28:37.437Z,16.30
2017-08-29T02:31:05.587Z,16.30
2017-08-29T02:33:33.730Z,16.30
2017-08-29T02:36:01.904Z,16.30
2017-08-29T02:38:30.070Z,16.20
2017-08-29T02:40:58.194Z,16.20
2017-08-29T02:43:26.375Z,16.20
2017-08-29T02:45:54.510Z,16.20
2017-08-29T02:48:22.684Z,16.20
2017-08-29T02:50:50.825Z,16.20
2017-08-29T02:53:18.988Z,16.20
2017-08-29T02:55:47.121Z,16.10
2017-08-29T02:58:15.281Z,16.10
2017-08-29T03:00:43.403Z,16.10
2017-08-29T03:03:11.579Z,16.10
2017-08-29T03:05:39.702Z,16.00
2017-08-29T03:08:07.844Z,16.10
2017-08-29T03:10:36.001Z,16.00
2017-08-29T03:13:04.133Z,16.00
2017-08-29T03:15:32.401Z,16.00
2017-08-29T03:18:00.550Z,16.00
2017-08-29T03:20:28.687Z,16.00
2017-08-29T03:22:56.856Z,15.90
2017-08-29T03:25:24.995Z,15.90
2017-08-29T03:27:53.157Z,15.90
2017-08-29T03:30:21.286Z,15.90
2017-08-29T03:32:49.440Z,15.90
2017-08-29T03:35:17.606Z,15.90
2017-08-29T03:37:45.726Z,15.80
2017-08-29T03:40:13.901Z,15.90
2017-08-29T03:42:42.042Z,15.80
2017-08-29T03:45:10.187Z,15.80
2017-08-29T03:47:38.349Z,15.80
2017-08-29T03:50:06.485Z,15.80
2017-08-29T03:52:34.762Z,15.70
2017-08-29T03:55:02.918Z,15.70
2017-08-29T03:57:31.071Z,15.70
2017-08-29T03:59:59.290Z,15.70
2017-08-29T04:02:27.424Z,15.70
2017-08-29T04:04:55.599Z,15.60
2017-08-29T04:07:23.729Z,15.60
2017-08-29T04:09:51.848Z,15.60
2017-08-29T04:12:20.001Z,15.60
2017-08-29T04:14:48.125Z,15.60
2017-08-29T04:17:16.293Z,15.60
2017-08-29T04:19:44.453Z,15.60
2017-08-29T04:22:12.626Z,15.60
2017-08-29T04:24:40.758Z,15.60
2017-08-29T04:27:08.920Z,15.60
2017-08-29T04:29:37.053Z,15.50
2017-08-29T04:32:05.189Z,15.50
2017-08-29T04:34:33.462Z,15.50
2017-08-29T04:37:01.585Z,15.50
2017-08-29T04:39:29.725Z,15.50
2017-08-29T04:41:58.000Z,15.50
2017-08-29T04:44:26.150Z,15.50
2017-08-29T04:46:54.295Z,15.50
2017-08-29T04:49:22.467Z,15.50
2017-08-29T04:51:50.597Z,15.60
2017-08-29T04:54:18.781Z,15.60
2017-08-29T04:56:46.938Z,15.60
2017-08-29T04:59:15.079Z,15.60
2017-08-29T05:01:43.248Z,15.60
2017-08-29T05:04:11.396Z,15.60
2017-08-29T05:06:39.555Z,15.60
2017-08-29T05:09:07.693Z,15.60
2017-08-29T05:11:35.859Z,15.60
2017-08-29T05:14:03.990Z,15.70
2017-08-29T05:16:32.127Z,15.70
2017-08-29T05:19:00.419Z,15.80
2017-08-29T05:21:28.557Z,15.80
2017-08-29T05:23:56.692Z,15.90
2017-08-29T05:26:24.854Z,15.90
2017-08-29T05:28:52.991Z,16.00
2017-08-29T05:31:21.166Z,16.00
2017-08-29T05:33:49.309Z,16.10
2017-08-29T05:36:17.470Z,16.30
2017-08-29T05:38:45.622Z,16.40
2017-08-29T05:41:13.767Z,16.60
2017-08-29T05:43:41.938Z,16.70
2017-08-29T05:46:10.061Z,16.90
2017-08-29T05:48:38.217Z,17.10
2017-08-29T05:51:06.349Z,17.30
2017-08-29T05:53:34.509Z,17.50
2017-08-29T05:56:02.661Z,17.60
2017-08-29T05:58:30.829Z,17.80
2017-08-29T06:00:58.993Z,17.90
2017-08-29T06:03:27.121Z,18.10
2017-08-29T06:05:55.295Z,18.30
2017-08-29T06:08:23.447Z,18.50
2017-08-29T06:10:51.580Z,18.70
2017-08-29T06:13:19.738Z,18.90
2017-08-29T06:15:47.861Z,19.00
2017-08-29T06:18:15.995Z,19.20
2017-08-29T06:20:44.157Z,19.40
2017-08-29T06:23:12.300Z,19.50
2017-08-29T06:25:40.432Z,19.70
2017-08-29T06:28:08.613Z,19.90
2017-08-29T06:30:36.741Z,20.10
2017-08-29T06:33:04.877Z,20.30
2017-08-29T06:35:33.049Z,20.40
2017-08-29T06:38:01.188Z,20.70
2017-08-29T06:40:29.326Z,20.80
2017-08-29T06:42:57.491Z,20.90
2017-08-29T06:45:25.621Z,21.10
2017-08-29T06:47:53.762Z,21.20
2017-08-29T06:50:21.943Z,21.40
2017-08-29T06:52:50.079Z,21.50
2017-08-29T06:55:18.209Z,21.70
2017-08-29T06:57:46.366Z,21.70
2017-08-29T07:00:14.529Z,21.80
2017-08-29T07:02:42.688Z,21.90
2017-08-29T07:05:10.835Z,22.00
2017-08-29T07:07:38.992Z,22.10
2017-08-29T07:10:07.114Z,22.20
2017-08-29T07:12:35.247Z,22.20
2017-08-29T07:15:03.430Z,22.20
2017-08-29T07:17:31.555Z,22.40
2017-08-29T07:19:59.676Z,22.50
2017-08-29T07:22:27.842Z,22.60
2017-08-29T07:24:55.987Z,22.80
2017-08-29T07:27:24.111Z,22.90
2017-08-29T07:29:52.269Z,23.00
2017-08-29T07:32:20.402Z,23.20
2017-08-29T07:34:48.538Z,23.30
2017-08-29T07:37:16.713Z,23.30
2017-08-29T07:39:44.847Z,23.30
2017-08-29T07:42:13.012Z,23.50
2017-08-29T07:44:41.137Z,23.60
2017-08-29T07:47:09.304Z,23.90
2017-08-29T07:49:37.437Z,23.90
2017-08-29T07:52:05.605Z,24.00
2017-08-29T07:54:33.755Z,24.00
2017-08-29T07:57:01.891Z,24.20
2017-08-29T07:59:30.046Z,24.40
2017-08-29T08:01:58.179Z,24.60
2017-08-29T08:04:26.333Z,24.80
2017-08-29T08:06:54.466Z,25.00
2017-08-29T08:09:22.610Z,25.20
2017-08-29T08:11:50.787Z,25.40
2017-08-29T08:14:18.921Z,25.50
2017-08-29T08:16:47.055Z,25.70
2017-08-29T08:19:15.231Z,26.00
2017-08-29T08:21:43.378Z,26.10
2017-08-29T08:24:11.543Z,26.00
2017-08-29T08:26:39.686Z,25.90
2017-08-29T08:29:07.863Z,26.10
2017-08-29T08:31:35.988Z,26.20
2017-08-29T08:34:04.138Z,26.20
2017-08-29T08:36:32.311Z,26.20
2017-08-29T08:39:00.431Z,26.30
2017-08-29T08:41:28.609Z,26.30
2017-08-29T08:43:56.744Z,26.40
2017-08-29T08:46:24.879Z,26.30
2017-08-29T08:48:53.038Z,26.30
2017-08-29T08:51:21.171Z,26.50
2017-08-29T08:53:49.453Z,26.50
2017-08-29T08:56:17.605Z,26.50
2017-08-29T08:58:45.749Z,26.60
2017-08-29T09:01:13.902Z,26.60
2017-08-29T09:03:42.063Z,26.70
2017-08-29T09:06:10.229Z,26.90
2017-08-29T09:08:38.376Z,27.00
2017-08-29T09:11:06.511Z,27.00
2017-08-29T09:13:34.703Z,27.10
2017-08-29T09:16:02.834Z,27.10
2017-08-29T09:18:31.007Z,27.20
2017-08-29T09:20:59.142Z,27.30
2017-08-29T09:23:27.279Z,27.50
2017-08-29T09:25:55.451Z,27.50
2017-08-29T09:28:23.598Z,27.60
2017-08-29T09:30:51.753Z,27.50
2017-08-29T09:33:19.876Z,27.60
2017-08-29T09:35:48.015Z,27.60
2017-08-29T09:38:16.179Z,27.70
2017-08-29T09:40:44.321Z,27.90
2017-08-29T09:43:12.485Z,27.90
2017-08-29T09:45:40.629Z,28.00
2017-08-29T09:48:09.418Z,28.20
2017-08-29T09:50:37.595Z,28.20
2017-08-29T09:53:05.745Z,28.40
2017-08-29T09:55:33.922Z,28.40
2017-08-29T09:58:02.060Z,28.40
2017-08-29T10:00:30.185Z,28.40
2017-08-29T10:02:58.354Z,28.50
2017-08-29T10:05:26.490Z,28.40
2017-08-29T10:07:54.628Z,28.40
2017-08-29T10:10:22.800Z,28.60
2017-08-29T10:12:50.918Z,28.70
2017-08-29T10:15:19.059Z,28.90
2017-08-29T10:17:47.217Z,28.90
2017-08-29T10:20:15.337Z,28.80
2017-08-29T10:22:43.493Z,28.80
2017-08-29T10:25:11.625Z,28.80
2017-08-29T10:27:39.761Z,28.60
2017-08-29T10:30:08.062Z,28.70
2017-08-29T10:32:36.204Z,28.60
2017-08-29T10:35:04.367Z,28.60
2017-08-29T10:37:32.498Z,28.60
2017-08-29T10:40:00.667Z,28.40
2017-08-29T10:42:28.803Z,28.40
2017-08-29T10:44:56.921Z,28.40
2017-08-29T10:47:25.080Z,28.30
2017-08-29T10:49:53.220Z,28.20
2017-08-29T10:52:21.391Z,28.10
2017-08-29T10:54:49.567Z,27.90
2017-08-29T10:57:17.702Z,27.80
2017-08-29T10:59:45.876Z,27.70
2017-08-29T11:02:13.993Z,27.60
2017-08-29T11:04:42.176Z,27.50
2017-08-29T11:07:10.305Z,27.40
2017-08-29T11:09:38.452Z,27.30
2017-08-29T11:12:06.624Z,27.20
2017-08-29T11:14:34.757Z,27.10
2017-08-29T11:17:02.885Z,26.90
2017-08-29T11:19:31.044Z,26.80
2017-08-29T11:21:59.179Z,26.80
2017-08-29T11:24:27.314Z,26.70
2017-08-29T11:26:55.487Z,26.60
2017-08-29T11:29:24.559Z,26.50
2017-08-29T11:31:52.719Z,26.40
2017-08-29T11:34:20.874Z,26.30
2017-08-29T11:36:49.038Z,26.20
2017-08-29T11:39:17.201Z,26.10
2017-08-29T11:41:45.337Z,26.10
2017-08-29T11:44:13.465Z,26.10
2017-08-29T11:46:41.630Z,26.10
2017-08-29T11:49:09.782Z,26.10
2017-08-29T11:51:37.953Z,26.10
2017-08-29T11:54:06.086Z,26.10
2017-08-29T11:56:34.208Z,26.10
2017-08-29T11:59:02.388Z,26.10
2017-08-29T12:01:30.525Z,26.10
2017-08-29T12:03:58.689Z,26.10
2017-08-29T12:06:26.823Z,26.10
2017-08-29T12:08:54.962Z,26.00
2017-08-29T12:11:23.147Z,26.00
2017-08-29T12:13:51.283Z,26.00
2017-08-29T12:16:19.413Z,26.00
2017-08-29T12:18:47.583Z,26.00
2017-08-29T12:21:15.711Z,26.00
2017-08-29T12:23:43.837Z,26.00
2017-08-29T12:26:12.015Z,25.90
2017-08-29T12:28:40.155Z,25.90
2017-08-29T12:31:08.324Z,25.90
2017-08-29T12:33:36.454Z,25.90
2017-08-29T12:36:04.587Z,25.90
2017-08-29T12:38:32.758Z,25.90
2017-08-29T12:41:00.893Z,25.90
2017-08-29T12:43:29.067Z,25.90
2017-08-29T12:45:57.221Z,25.90
2017-08-29T12:48:25.403Z,25.90
2017-08-29T12:50:53.555Z,25.90
2017-08-29T12:53:21.688Z,25.90
2017-08-29T12:55:49.880Z,25.90
2017-08-29T12:58:18.001Z,26.00
2017-08-29T13:00:46.153Z,25.90
2017-08-29T13:03:14.276Z,26.00
2017-08-29T13:05:42.498Z,26.00
2017-08-29T13:08:10.648Z,26.00
2017-08-29T13:10:38.789Z,26.00
2017-08-29T13:13:06.959Z,26.00
2017-08-29T13:15:35.093Z,26.10
2017-08-29T13:18:03.222Z,26.10
2017-08-29T13:20:31.382Z,26.10
2017-08-29T13:22:59.514Z,26.10
2017-08-29T13:25:27.683Z,26.10
2017-08-29T13:27:55.805Z,26.10
2017-08-29T13:30:23.942Z,26.10
2017-08-29T13:32:52.111Z,26.10
2017-08-29T13:35:20.253Z,26.10
2017-08-29T13:37:48.419Z,26.10
2017-08-29T13:40:16.559Z,26.10
2017-08-29T13:42:44.710Z,26.10
2017-08-29T13:45:12.942Z,26.10
2017-08-29T13:47:41.127Z,26.10
2017-08-29T13:50:09.253Z,26.10
2017-08-29T13:52:37.403Z,26.10
2017-08-29T13:55:05.578Z,26.10
2017-08-29T13:57:33.731Z,26.10
2017-08-29T14:00:01.902Z,26.00
2017-08-29T14:02:30.040Z,26.10
2017-08-29T14:04:58.173Z,26.10
2017-08-29T14:07:26.337Z,26.10
2017-08-29T14:09:54.475Z,26.20
2017-08-29T14:12:22.639Z,26.20
2017-08-29T14:14:50.771Z,26.20
2017-08-29T14:17:18.937Z,26.20
2017-08-29T14:19:47.061Z,26.20
2017-08-29T14:22:15.239Z,26.10
2017-08-29T14:24:43.384Z,26.20
2017-08-29T14:27:11.564Z,26.10
2017-08-29T14:29:39.837Z,26.10
2017-08-29T14:32:08.038Z,26.20
2017-08-29T14:34:36.278Z,26.20
2017-08-29T14:37:04.541Z,26.10
2017-08-29T14:39:32.667Z,26.20
2017-08-29T14:42:00.805Z,26.10
2017-08-29T14:44:28.974Z,26.10
2017-08-29T14:50:02.966Z,26.10
2017-08-29T14:52:31.868Z,26.10
2017-08-29T14:54:59.993Z,26.10
2017-08-29T14:57:28.271Z,26.10
2017-08-29T14:59:56.406Z,26.10
2017-08-29T15:02:24.733Z,26.10
2017-08-29T15:04:52.897Z,26.10
2017-08-29T15:07:21.038Z,26.10
2017-08-29T15:09:49.172Z,26.10
2017-08-29T15:12:17.355Z,26.00
2017-08-29T15:14:45.497Z,26.00
2017-08-29T15:17:13.671Z,26.00
2017-08-29T15:19:41.793Z,26.00
2017-08-29T15:22:09.958Z,26.00
2017-08-29T15:24:38.080Z,26.00
2017-08-29T15:27:06.212Z,26.00
2017-08-29T15:29:34.377Z,26.10
2017-08-29T15:32:02.504Z,26.00
2017-08-29T15:34:30.637Z,26.00
2017-08-29T15:36:58.799Z,26.00
2017-08-29T15:39:26.926Z,26.00
2017-08-29T15:41:55.326Z,25.90
2017-08-29T15:44:23.472Z,25.90
2017-08-29T15:46:51.615Z,25.90
2017-08-29T15:49:19.773Z,25.90
2017-08-29T15:51:47.908Z,25.80
2017-08-29T15:54:16.099Z,25.80
2017-08-29T15:56:44.231Z,25.70
2017-08-29T15:59:12.361Z,25.80
2017-08-29T16:01:40.552Z,25.80
2017-08-29T16:04:08.694Z,25.70
2017-08-29T16:06:36.817Z,25.70
2017-08-29T16:09:04.992Z,25.70
2017-08-29T16:11:33.123Z,25.70
2017-08-29T16:14:01.281Z,25.70
2017-08-29T16:16:29.417Z,25.70
2017-08-29T16:18:57.577Z,25.70
2017-08-29T16:21:25.713Z,25.70
2017-08-29T16:23:53.885Z,25.60
2017-08-29T16:26:22.022Z,25.60
2017-08-29T16:28:50.167Z,25.60
2017-08-29T16:31:18.334Z,25.50
2017-08-29T16:33:46.470Z,25.50
2017-08-29T16:36:14.616Z,25.50
2017-08-29T16:38:42.783Z,25.50
2017-08-29T16:41:10.915Z,25.40
2017-08-29T16:43:39.105Z,25.40
2017-08-29T16:46:07.246Z,25.40
2017-08-29T16:48:35.378Z,25.30
2017-08-29T16:51:03.556Z,25.30
2017-08-29T16:53:31.700Z,25.30
2017-08-29T16:55:59.874Z,25.20
2017-08-29T16:58:28.016Z,25.20
2017-08-29T17:00:56.190Z,25.20
2017-08-29T17:03:24.317Z,25.20
2017-08-29T17:05:52.468Z,25.20
2017-08-29T17:08:20.645Z,25.10
2017-08-29T17:10:48.780Z,25.10
2017-08-29T17:13:16.953Z,25.00
2017-08-29T17:15:45.178Z,25.00
2017-08-29T17:18:13.385Z,24.90
2017-08-29T17:20:41.539Z,24.90
2017-08-29T17:23:09.670Z,24.90
2017-08-29T17:25:37.888Z,24.80
2017-08-29T17:28:06.023Z,24.80
2017-08-29T17:30:34.203Z,24.70
2017-08-29T17:33:02.339Z,24.70
2017-08-29T17:35:30.503Z,24.70
2017-08-29T17:37:58.651Z,24.60
2017-08-29T17:40:26.782Z,24.60
2017-08-29T17:42:54.946Z,24.50
2017-08-29T17:45:23.074Z,24.50
2017-08-29T17:47:51.254Z,24.40
2017-08-29T17:50:19.547Z,24.30
2017-08-29T17:52:47.717Z,24.30
2017-08-29T17:55:15.846Z,24.20
2017-08-29T17:57:43.991Z,24.20
2017-08-29T18:00:12.168Z,24.10
2017-08-29T18:02:40.308Z,24.00
2017-08-29T18:05:08.479Z,23.90
2017-08-29T18:07:36.623Z,23.90
2017-08-29T18:10:04.821Z,23.80
2017-08-29T18:12:32.971Z,23.70
2017-08-29T18:15:01.129Z,23.60
2017-08-29T18:17:29.285Z,23.50
2017-08-29T18:19:57.464Z,23.50
2017-08-29T18:22:25.599Z,23.40
2017-08-29T18:24:53.728Z,23.30
2017-08-29T18:27:21.904Z,23.20
2017-08-29T18:29:50.050Z,23.10
2017-08-29T18:32:18.224Z,23.00
2017-08-29T18:34:46.353Z,22.90
2017-08-29T18:37:14.495Z,22.80
2017-08-29T18:39:44.062Z,22.60
2017-08-29T18:42:12.192Z,22.60
2017-08-29T18:44:40.362Z,22.50
2017-08-29T18:47:08.501Z,22.30
2017-08-29T18:49:37.610Z,22.20
2017-08-29T18:52:05.766Z,22.10
2017-08-29T18:54:33.955Z,22.00
2017-08-29T18:57:02.112Z,21.90
2017-08-29T18:59:30.303Z,21.90
2017-08-29T19:01:58.454Z,21.80
2017-08-29T19:04:26.686Z,21.70
2017-08-29T19:06:54.962Z,21.60
2017-08-29T19:09:24.276Z,21.50
2017-08-29T19:11:52.602Z,21.40
2017-08-29T19:14:21.020Z,21.30
2017-08-29T19:16:49.273Z,21.30
2017-08-29T19:19:17.628Z,21.20
2017-08-29T19:21:46.033Z,21.10
2017-08-29T19:24:14.950Z,21.00
2017-08-29T19:26:43.194Z,21.00
2017-08-29T19:29:11.470Z,20.90
2017-08-29T19:31:39.695Z,20.90
2017-08-29T19:34:08.005Z,20.80
2017-08-29T19:36:36.254Z,20.70
2017-08-29T19:39:04.845Z,20.60
2017-08-29T19:41:33.239Z,20.60
2017-08-29T19:44:01.883Z,20.50
2017-08-29T19:46:30.550Z,20.50
2017-08-29T19:48:58.807Z,20.40
2017-08-29T19:51:27.018Z,20.40
2017-08-29T19:53:55.252Z,20.30
2017-08-29T19:56:23.565Z,20.30
2017-08-29T19:58:51.791Z,20.20
2017-08-29T20:01:20.109Z,20.20
2017-08-29T20:03:48.365Z,20.10
2017-08-29T20:06:17.028Z,20.10
2017-08-29T20:08:45.249Z,20.00
2017-08-29T20:11:13.428Z,20.00
2017-08-29T20:13:41.590Z,19.90
2017-08-29T20:16:09.771Z,19.90
2017-08-29T20:18:37.914Z,19.80
2017-08-29T20:21:06.866Z,19.80
2017-08-29T20:23:34.998Z,19.70
2017-08-29T20:26:03.172Z,19.70
2017-08-29T20:28:31.323Z,19.70
2017-08-29T20:30:59.478Z,19.60
2017-08-29T20:33:27.617Z,19.60
2017-08-29T20:35:55.787Z,19.50
2017-08-29T20:38:23.964Z,19.50
2017-08-29T20:40:52.101Z,19.40
2017-08-29T20:43:20.288Z,19.40
2017-08-29T20:45:48.422Z,19.30
2017-08-29T20:48:16.582Z,19.30
2017-08-29T20:50:44.743Z,19.30
2017-08-29T20:53:12.940Z,19.20
2017-08-29T20:55:41.085Z,19.10
2017-08-29T20:58:09.246Z,19.10
2017-08-29T21:00:37.375Z,19.10
2017-08-29T21:03:05.552Z,19.00
2017-08-29T21:05:33.704Z,19.00
2017-08-29T21:08:01.868Z,18.90
2017-08-29T21:10:29.994Z,18.90
2017-08-29T21:12:58.166Z,18.90
2017-08-29T21:15:26.315Z,18.80
2017-08-29T21:17:54.490Z,18.80
2017-08-29T21:20:22.630Z,18.70
2017-08-29T21:22:50.785Z,18.70
2017-08-29T21:25:18.909Z,18.70
2017-08-29T21:27:47.080Z,18.60
2017-08-29T21:30:15.221Z,18.60
2017-08-29T21:32:43.396Z,18.60
2017-08-29T21:35:11.544Z,18.50
2017-08-29T21:37:39.720Z,18.50
2017-08-29T21:40:07.874Z,18.50
2017-08-29T21:42:36.061Z,18.50
2017-08-29T21:45:04.200Z,18.40
2017-08-29T21:47:32.363Z,18.40
2017-08-29T21:50:00.493Z,18.40
2017-08-29T21:52:28.657Z,18.30
2017-08-29T21:54:56.802Z,18.30
2017-08-29T21:57:24.983Z,18.30
2017-08-29T21:59:53.129Z,18.30
2017-08-29T22:02:21.317Z,18.20
2017-08-29T22:04:49.446Z,18.10
2017-08-29T22:07:17.586Z,18.10
2017-08-29T22:09:45.736Z,18.10
2017-08-29T22:12:13.863Z,18.10
2017-08-29T22:14:42.030Z,18.00
2017-08-29T22:17:10.165Z,18.00
2017-08-29T22:19:38.330Z,18.00
2017-08-29T22:22:06.462Z,17.90
2017-08-29T22:24:34.634Z,17.90
2017-08-29T22:27:02.777Z,17.90
2017-08-29T22:29:30.951Z,17.80
2017-08-29T22:31:59.096Z,17.80
2017-08-29T22:34:27.271Z,17.80
2017-08-29T22:36:55.406Z,17.80
2017-08-29T22:39:23.586Z,17.80
2017-08-29T22:41:51.714Z,17.80
2017-08-29T22:44:19.891Z,17.70
2017-08-29T22:46:48.015Z,17.70
2017-08-29T22:49:16.173Z,17.70
2017-08-29T22:51:44.312Z,17.70
2017-08-29T22:54:12.482Z,17.60
2017-08-29T22:56:40.616Z,17.60
2017-08-29T22:59:08.777Z,17.60
2017-08-29T23:01:36.909Z,17.60
2017-08-29T23:04:05.070Z,17.50
2017-08-29T23:06:33.214Z,17.50
2017-08-29T23:09:01.391Z,17.50
2017-08-29T23:11:29.521Z,17.50
2017-08-29T23:13:57.686Z,17.50
2017-08-29T23:16:25.825Z,17.40
2017-08-29T23:18:54.024Z,17.50
2017-08-29T23:21:22.166Z,17.40
2017-08-29T23:23:50.337Z,17.40
2017-08-29T23:26:18.482Z,17.40
2017-08-29T23:28:46.654Z,17.40
2017-08-29T23:31:14.786Z,17.40
2017-08-29T23:33:42.964Z,17.40
2017-08-29T23:36:11.102Z,17.30
2017-08-29T23:38:39.244Z,17.30
2017-08-29T23:41:07.414Z,17.30
2017-08-29T23:43:35.549Z,17.30
2017-08-29T23:46:03.735Z,17.30
2017-08-29T23:48:32.008Z,17.30
2017-08-29T23:51:00.148Z,17.20
2017-08-29T23:53:28.313Z,17.20
2017-08-29T23:55:56.457Z,17.20
2017-08-29T23:58:24.647Z,17.20
